sensor_id;sensor_type;location;lat;lon;timestamp;pressure;altitude;pressure_sealevel;temperature;humidity
41636;BME280;27623;51.966;4.602;2022-07-10T00:00:30;102816.91;;;17.72;68.21
41636;BME280;27623;51.966;4.602;2022-07-10T00:02:56;102808.09;;;17.87;67.11
41636;BME280;27623;51.966;4.602;2022-07-10T00:05:22;102813.53;;;17.65;68.46
41636;BME280;27623;51.966;4.602;2022-07-10T00:07:49;102810.94;;;17.64;68.75
41636;BME280;27623;51.966;4.602;2022-07-10T00:10:15;102813.47;;;17.71;67.98
41636;BME280;27623;51.966;4.602;2022-07-10T00:12:43;102810.06;;;17.66;68.10
41636;BME280;27623;51.966;4.602;2022-07-10T00:15:09;102810.06;;;17.63;68.84
41636;BME280;27623;51.966;4.602;2022-07-10T00:17:34;102804.09;;;17.50;69.41
41636;BME280;27623;51.966;4.602;2022-07-10T00:20:02;102808.31;;;17.64;68.97
41636;BME280;27623;51.966;4.602;2022-07-10T00:22:27;102803.94;;;17.70;68.67
41636;BME280;27623;51.966;4.602;2022-07-10T00:24:53;102807.47;;;17.63;68.64
41636;BME280;27623;51.966;4.602;2022-07-10T00:27:19;102799.84;;;17.45;69.67
41636;BME280;27623;51.966;4.602;2022-07-10T00:29:48;102803.34;;;17.39;71.04
41636;BME280;27623;51.966;4.602;2022-07-10T00:32:13;102798.84;;;17.55;70.36
41636;BME280;27623;51.966;4.602;2022-07-10T00:34:39;102794.81;;;17.25;71.83
41636;BME280;27623;51.966;4.602;2022-07-10T00:37:05;102793.88;;;17.34;71.60
41636;BME280;27623;51.966;4.602;2022-07-10T00:39:31;102789.47;;;17.43;71.34
41636;BME280;27623;51.966;4.602;2022-07-10T00:42:06;102787.72;;;17.42;71.91
41636;BME280;27623;51.966;4.602;2022-07-10T00:44:34;102779.13;;;17.33;72.02
41636;BME280;27623;51.966;4.602;2022-07-10T00:47:01;102780.00;;;17.35;71.71
41636;BME280;27623;51.966;4.602;2022-07-10T00:49:27;102778.38;;;17.25;72.79
41636;BME280;27623;51.966;4.602;2022-07-10T00:51:53;102775.72;;;17.28;72.06
41636;BME280;27623;51.966;4.602;2022-07-10T00:54:21;102774.81;;;17.30;72.44
41636;BME280;27623;51.966;4.602;2022-07-10T00:56:46;102780.72;;;17.46;72.09
41636;BME280;27623;51.966;4.602;2022-07-10T00:59:12;102782.63;;;17.30;72.46
41636;BME280;27623;51.966;4.602;2022-07-10T01:01:38;102783.59;;;17.23;73.10
41636;BME280;27623;51.966;4.602;2022-07-10T01:04:04;102786.84;;;17.45;72.17
41636;BME280;27623;51.966;4.602;2022-07-10T01:06:29;102784.47;;;17.19;72.29
41636;BME280;27623;51.966;4.602;2022-07-10T01:08:55;102782.63;;;17.32;72.38
41636;BME280;27623;51.966;4.602;2022-07-10T01:11:21;102781.06;;;17.14;72.96
41636;BME280;27623;51.966;4.602;2022-07-10T01:13:46;102778.50;;;17.08;73.18
41636;BME280;27623;51.966;4.602;2022-07-10T01:16:12;102772.41;;;17.09;72.85
41636;BME280;27623;51.966;4.602;2022-07-10T01:18:38;102766.31;;;17.13;73.36
41636;BME280;27623;51.966;4.602;2022-07-10T01:21:04;102766.28;;;17.21;73.00
41636;BME280;27623;51.966;4.602;2022-07-10T01:23:29;102765.28;;;17.32;71.62
41636;BME280;27623;51.966;4.602;2022-07-10T01:25:56;102767.91;;;17.28;72.27
41636;BME280;27623;51.966;4.602;2022-07-10T01:28:21;102766.28;;;17.17;73.31
41636;BME280;27623;51.966;4.602;2022-07-10T01:30:48;102761.13;;;17.14;73.48
41636;BME280;27623;51.966;4.602;2022-07-10T01:33:14;102758.38;;;17.27;72.82
41636;BME280;27623;51.966;4.602;2022-07-10T01:35:40;102765.28;;;17.31;72.22
41636;BME280;27623;51.966;4.602;2022-07-10T01:38:06;102760.09;;;17.29;72.52
41636;BME280;27623;51.966;4.602;2022-07-10T01:40:32;102754.19;;;17.15;72.97
41636;BME280;27623;51.966;4.602;2022-07-10T01:42:58;102755.06;;;17.12;72.88
41636;BME280;27623;51.966;4.602;2022-07-10T01:45:23;102752.44;;;17.15;73.10
41636;BME280;27623;51.966;4.602;2022-07-10T01:47:49;102753.34;;;17.11;73.00
41636;BME280;27623;51.966;4.602;2022-07-10T01:50:17;102744.63;;;17.17;72.91
41636;BME280;27623;51.966;4.602;2022-07-10T01:52:43;102749.91;;;17.06;73.06
41636;BME280;27623;51.966;4.602;2022-07-10T01:55:08;102753.44;;;17.02;73.76
41636;BME280;27623;51.966;4.602;2022-07-10T01:57:34;102744.69;;;17.09;73.53
41636;BME280;27623;51.966;4.602;2022-07-10T01:59:59;102751.63;;;17.07;73.48
41636;BME280;27623;51.966;4.602;2022-07-10T02:02:25;102749.00;;;17.12;73.33
41636;BME280;27623;51.966;4.602;2022-07-10T02:04:50;102753.38;;;17.07;73.29
41636;BME280;27623;51.966;4.602;2022-07-10T02:07:18;102749.94;;;17.05;73.70
41636;BME280;27623;51.966;4.602;2022-07-10T02:09:44;102749.84;;;17.14;73.39
41636;BME280;27623;51.966;4.602;2022-07-10T02:12:14;102743.00;;;17.05;73.54
41636;BME280;27623;51.966;4.602;2022-07-10T02:14:40;102755.06;;;17.12;73.57
41636;BME280;27623;51.966;4.602;2022-07-10T02:17:07;102754.16;;;17.16;72.90
41636;BME280;27623;51.966;4.602;2022-07-10T02:19:33;102751.63;;;17.07;73.26
41636;BME280;27623;51.966;4.602;2022-07-10T02:21:59;102748.25;;;17.01;73.45
41636;BME280;27623;51.966;4.602;2022-07-10T02:24:25;102744.84;;;16.93;74.29
41636;BME280;27623;51.966;4.602;2022-07-10T02:26:50;102748.25;;;17.01;73.92
41636;BME280;27623;51.966;4.602;2022-07-10T02:29:16;102746.44;;;17.06;73.58
41636;BME280;27623;51.966;4.602;2022-07-10T02:31:44;102749.16;;;16.95;73.91
41636;BME280;27623;51.966;4.602;2022-07-10T02:34:11;102743.97;;;16.92;74.50
41636;BME280;27623;51.966;4.602;2022-07-10T02:36:37;102741.38;;;16.92;74.69
41636;BME280;27623;51.966;4.602;2022-07-10T02:39:04;102736.19;;;16.94;74.41
41636;BME280;27623;51.966;4.602;2022-07-10T02:41:29;102733.53;;;17.00;74.26
41636;BME280;27623;51.966;4.602;2022-07-10T02:43:55;102739.53;;;17.05;74.01
41636;BME280;27623;51.966;4.602;2022-07-10T02:46:21;102742.09;;;17.08;73.31
41636;BME280;27623;51.966;4.602;2022-07-10T02:48:47;102741.25;;;17.06;73.91
41636;BME280;27623;51.966;4.602;2022-07-10T02:51:13;102739.59;;;17.00;74.79
41636;BME280;27623;51.966;4.602;2022-07-10T02:53:38;102736.97;;;17.02;74.31
41636;BME280;27623;51.966;4.602;2022-07-10T02:56:04;102738.72;;;17.03;74.26
41636;BME280;27623;51.966;4.602;2022-07-10T02:58:30;102745.66;;;17.02;74.26
41636;BME280;27623;51.966;4.602;2022-07-10T03:00:55;102736.16;;;16.97;74.27
41636;BME280;27623;51.966;4.602;2022-07-10T03:03:21;102739.78;;;16.79;75.56
41636;BME280;27623;51.966;4.602;2022-07-10T03:05:47;102730.19;;;16.84;75.23
41636;BME280;27623;51.966;4.602;2022-07-10T03:08:13;102718.88;;;16.91;74.97
41636;BME280;27623;51.966;4.602;2022-07-10T03:10:39;102721.47;;;16.91;75.61
41636;BME280;27623;51.966;4.602;2022-07-10T03:13:06;102728.41;;;16.88;75.39
41636;BME280;27623;51.966;4.602;2022-07-10T03:15:31;102729.22;;;16.99;75.63
41636;BME280;27623;51.966;4.602;2022-07-10T03:17:56;102728.34;;;16.98;75.75
41636;BME280;27623;51.966;4.602;2022-07-10T03:20:22;102723.06;;;17.04;75.60
41636;BME280;27623;51.966;4.602;2022-07-10T03:22:48;102722.25;;;17.04;76.04
41636;BME280;27623;51.966;4.602;2022-07-10T03:25:13;102715.22;;;17.12;75.65
41636;BME280;27623;51.966;4.602;2022-07-10T03:27:39;102719.50;;;17.16;75.84
41636;BME280;27623;51.966;4.602;2022-07-10T03:30:06;102718.63;;;17.17;75.88
41636;BME280;27623;51.966;4.602;2022-07-10T03:32:31;102717.78;;;17.15;76.04
41636;BME280;27623;51.966;4.602;2022-07-10T03:34:57;102717.72;;;17.21;75.88
41636;BME280;27623;51.966;4.602;2022-07-10T03:37:23;102722.03;;;17.24;75.80
41636;BME280;27623;51.966;4.602;2022-07-10T03:39:48;102711.50;;;17.34;75.25
41636;BME280;27623;51.966;4.602;2022-07-10T03:42:16;102715.19;;;17.13;76.74
41636;BME280;27623;51.966;4.602;2022-07-10T03:44:42;102711.66;;;17.21;76.28
41636;BME280;27623;51.966;4.602;2022-07-10T03:47:08;102711.56;;;17.28;76.48
41636;BME280;27623;51.966;4.602;2022-07-10T03:49:33;102709.00;;;17.25;76.57
41636;BME280;27623;51.966;4.602;2022-07-10T03:52:02;102704.78;;;17.13;76.87
41636;BME280;27623;51.966;4.602;2022-07-10T03:54:29;102705.59;;;17.23;77.23
41636;BME280;27623;51.966;4.602;2022-07-10T03:56:55;102716.78;;;17.25;77.26
41636;BME280;27623;51.966;4.602;2022-07-10T03:59:39;102709.06;;;17.21;77.54
41636;BME280;27623;51.966;4.602;2022-07-10T04:02:04;102718.59;;;17.20;78.23
41636;BME280;27623;51.966;4.602;2022-07-10T04:04:30;102703.69;;;17.37;76.81
41636;BME280;27623;51.966;4.602;2022-07-10T04:06:56;102703.78;;;17.25;77.33
41636;BME280;27623;51.966;4.602;2022-07-10T04:09:21;102702.00;;;17.33;77.44
41636;BME280;27623;51.966;4.602;2022-07-10T04:11:47;102702.00;;;17.32;77.48
41636;BME280;27623;51.966;4.602;2022-07-10T04:14:13;102705.28;;;17.49;77.42
41636;BME280;27623;51.966;4.602;2022-07-10T04:16:39;102702.81;;;17.38;77.74
41636;BME280;27623;51.966;4.602;2022-07-10T04:19:04;102696.78;;;17.33;77.67
41636;BME280;27623;51.966;4.602;2022-07-10T04:21:30;102695.03;;;17.37;76.25
41636;BME280;27623;51.966;4.602;2022-07-10T04:23:57;102689.81;;;17.38;75.74
41636;BME280;27623;51.966;4.602;2022-07-10T04:26:23;102694.16;;;17.35;75.46
41636;BME280;27623;51.966;4.602;2022-07-10T04:28:49;102701.00;;;17.45;76.06
41636;BME280;27623;51.966;4.602;2022-07-10T04:31:14;102699.28;;;17.44;75.92
41636;BME280;27623;51.966;4.602;2022-07-10T04:33:40;102700.97;;;17.46;76.58
41636;BME280;27623;51.966;4.602;2022-07-10T04:36:07;102698.47;;;17.39;78.01
41636;BME280;27623;51.966;4.602;2022-07-10T04:38:33;102699.28;;;17.44;77.29
41636;BME280;27623;51.966;4.602;2022-07-10T04:40:59;102707.09;;;17.44;77.49
41636;BME280;27623;51.966;4.602;2022-07-10T04:43:24;102712.22;;;17.48;76.96
41636;BME280;27623;51.966;4.602;2022-07-10T04:45:49;102716.63;;;17.45;77.40
41636;BME280;27623;51.966;4.602;2022-07-10T04:48:17;102715.75;;;17.43;77.65
41636;BME280;27623;51.966;4.602;2022-07-10T04:50:43;102715.78;;;17.41;77.31
41636;BME280;27623;51.966;4.602;2022-07-10T04:53:08;102711.31;;;17.51;77.61
41636;BME280;27623;51.966;4.602;2022-07-10T04:55:33;102717.44;;;17.47;77.96
41636;BME280;27623;51.966;4.602;2022-07-10T04:57:59;102721.72;;;17.51;77.62
41636;BME280;27623;51.966;4.602;2022-07-10T05:00:24;102715.69;;;17.49;78.09
41636;BME280;27623;51.966;4.602;2022-07-10T05:02:50;102716.56;;;17.46;78.58
41636;BME280;27623;51.966;4.602;2022-07-10T05:05:16;102714.78;;;17.51;79.05
41636;BME280;27623;51.966;4.602;2022-07-10T05:07:43;102725.19;;;17.50;78.18
41636;BME280;27623;51.966;4.602;2022-07-10T05:10:09;102722.63;;;17.48;78.59
41636;BME280;27623;51.966;4.602;2022-07-10T05:12:35;102727.81;;;17.48;79.00
41636;BME280;27623;51.966;4.602;2022-07-10T05:15:00;102722.53;;;17.56;78.62
41636;BME280;27623;51.966;4.602;2022-07-10T05:17:27;102729.47;;;17.57;78.69
41636;BME280;27623;51.966;4.602;2022-07-10T05:19:54;102728.53;;;17.66;78.61
41636;BME280;27623;51.966;4.602;2022-07-10T05:22:21;102716.44;;;17.59;79.11
41636;BME280;27623;51.966;4.602;2022-07-10T05:24:46;102720.78;;;17.60;79.63
41636;BME280;27623;51.966;4.602;2022-07-10T05:27:12;102722.47;;;17.64;79.06
41636;BME280;27623;51.966;4.602;2022-07-10T05:29:37;102722.38;;;17.73;78.94
41636;BME280;27623;51.966;4.602;2022-07-10T05:32:05;102715.53;;;17.63;78.74
41636;BME280;27623;51.966;4.602;2022-07-10T05:34:31;102716.28;;;17.74;77.82
41636;BME280;27623;51.966;4.602;2022-07-10T05:36:57;102717.09;;;17.79;78.64
41636;BME280;27623;51.966;4.602;2022-07-10T05:39:24;102714.56;;;17.71;78.46
41636;BME280;27623;51.966;4.602;2022-07-10T05:41:52;102713.75;;;17.68;78.11
41636;BME280;27623;51.966;4.602;2022-07-10T05:44:18;102726.69;;;17.74;78.31
41636;BME280;27623;51.966;4.602;2022-07-10T05:46:45;102716.25;;;17.78;77.85
41636;BME280;27623;51.966;4.602;2022-07-10T05:49:10;102712.69;;;17.85;76.79
41636;BME280;27623;51.966;4.602;2022-07-10T05:51:36;102712.75;;;17.81;77.63
41636;BME280;27623;51.966;4.602;2022-07-10T05:54:02;102711.88;;;17.80;77.38
41636;BME280;27623;51.966;4.602;2022-07-10T05:56:28;102710.13;;;17.81;77.51
41636;BME280;27623;51.966;4.602;2022-07-10T05:58:54;102710.09;;;17.84;77.36
41636;BME280;27623;51.966;4.602;2022-07-10T06:01:21;102704.84;;;17.87;77.46
41636;BME280;27623;51.966;4.602;2022-07-10T06:03:47;102706.47;;;17.94;76.59
41636;BME280;27623;51.966;4.602;2022-07-10T06:06:12;102702.13;;;17.95;76.25
41636;BME280;27623;51.966;4.602;2022-07-10T06:08:57;102695.16;;;17.97;76.03
41636;BME280;27623;51.966;4.602;2022-07-10T06:11:24;102700.31;;;18.03;76.87
41636;BME280;27623;51.966;4.602;2022-07-10T06:13:50;102705.50;;;18.04;76.53
41636;BME280;27623;51.966;4.602;2022-07-10T06:16:15;102697.56;;;18.10;76.32
41636;BME280;27623;51.966;4.602;2022-07-10T06:18:41;102705.38;;;18.10;76.11
41636;BME280;27623;51.966;4.602;2022-07-10T06:21:06;102702.75;;;18.12;76.26
41636;BME280;27623;51.966;4.602;2022-07-10T06:23:33;102702.72;;;18.15;75.51
41636;BME280;27623;51.966;4.602;2022-07-10T06:25:58;102710.53;;;18.15;75.29
41636;BME280;27623;51.966;4.602;2022-07-10T06:28:24;102707.09;;;18.13;75.80
41636;BME280;27623;51.966;4.602;2022-07-10T06:30:49;102721.00;;;18.10;76.12
41636;BME280;27623;51.966;4.602;2022-07-10T06:33:15;102709.69;;;18.13;75.53
41636;BME280;27623;51.966;4.602;2022-07-10T06:35:40;102710.50;;;18.18;75.35
41636;BME280;27623;51.966;4.602;2022-07-10T06:38:06;102703.59;;;18.14;74.97
41636;BME280;27623;51.966;4.602;2022-07-10T06:40:35;102706.97;;;18.20;75.10
41636;BME280;27623;51.966;4.602;2022-07-10T06:43:03;102701.75;;;18.24;75.23
41636;BME280;27623;51.966;4.602;2022-07-10T06:45:29;102707.78;;;18.26;73.88
41636;BME280;27623;51.966;4.602;2022-07-10T06:47:55;102704.38;;;18.20;74.19
41636;BME280;27623;51.966;4.602;2022-07-10T06:50:20;102713.84;;;18.26;74.16
41636;BME280;27623;51.966;4.602;2022-07-10T06:52:47;102708.56;;;18.29;73.96
41636;BME280;27623;51.966;4.602;2022-07-10T06:55:12;102706.84;;;18.30;73.87
41636;BME280;27623;51.966;4.602;2022-07-10T06:57:38;102710.28;;;18.32;73.87
41636;BME280;27623;51.966;4.602;2022-07-10T07:00:07;102716.38;;;18.31;74.34
41636;BME280;27623;51.966;4.602;2022-07-10T07:02:34;102717.22;;;18.33;74.20
41636;BME280;27623;51.966;4.602;2022-07-10T07:04:59;102717.16;;;18.37;74.26
41636;BME280;27623;51.966;4.602;2022-07-10T07:07:25;102714.50;;;18.40;73.95
41636;BME280;27623;51.966;4.602;2022-07-10T07:09:50;102717.03;;;18.45;74.36
41636;BME280;27623;51.966;4.602;2022-07-10T07:12:16;102721.34;;;18.49;74.25
41636;BME280;27623;51.966;4.602;2022-07-10T07:14:43;102714.31;;;18.51;73.66
41636;BME280;27623;51.966;4.602;2022-07-10T07:17:08;102722.06;;;18.57;74.60
41636;BME280;27623;51.966;4.602;2022-07-10T07:19:40;102721.22;;;18.53;74.40
41636;BME280;27623;51.966;4.602;2022-07-10T07:22:24;102723.78;;;18.57;74.09
41636;BME280;27623;51.966;4.602;2022-07-10T07:25:09;102722.03;;;18.60;74.36
41636;BME280;27623;51.966;4.602;2022-07-10T07:27:36;102724.59;;;18.65;73.93
41636;BME280;27623;51.966;4.602;2022-07-10T07:30:13;102715.84;;;18.69;73.77
41636;BME280;27623;51.966;4.602;2022-07-10T07:32:43;102724.44;;;18.72;73.43
41636;BME280;27623;51.966;4.602;2022-07-10T07:35:10;102723.53;;;18.75;74.16
41636;BME280;27623;51.966;4.602;2022-07-10T07:37:37;102718.28;;;18.76;73.56
41636;BME280;27623;51.966;4.602;2022-07-10T07:40:04;102711.22;;;18.84;73.17
41636;BME280;27623;51.966;4.602;2022-07-10T07:42:32;102715.56;;;18.84;73.09
41636;BME280;27623;51.966;4.602;2022-07-10T07:44:58;102717.19;;;18.91;75.67
41636;BME280;27623;51.966;4.602;2022-07-10T07:47:26;102718.81;;;18.97;73.84
41636;BME280;27623;51.966;4.602;2022-07-10T07:49:51;102720.59;;;18.93;73.46
41636;BME280;27623;51.966;4.602;2022-07-10T07:52:17;102722.22;;;19.02;72.17
41636;BME280;27623;51.966;4.602;2022-07-10T07:54:42;102720.53;;;18.98;72.59
41636;BME280;27623;51.966;4.602;2022-07-10T07:57:07;102727.53;;;18.94;72.71
41636;BME280;27623;51.966;4.602;2022-07-10T07:59:33;102730.97;;;18.98;72.17
41636;BME280;27623;51.966;4.602;2022-07-10T08:02:02;102728.34;;;18.98;72.99
41636;BME280;27623;51.966;4.602;2022-07-10T08:04:27;102724.06;;;18.95;73.20
41636;BME280;27623;51.966;4.602;2022-07-10T08:06:52;102730.97;;;18.98;72.79
41636;BME280;27623;51.966;4.602;2022-07-10T08:09:19;102723.03;;;19.04;73.30
41636;BME280;27623;51.966;4.602;2022-07-10T08:11:45;102724.78;;;19.03;72.99
41636;BME280;27623;51.966;4.602;2022-07-10T08:14:11;102723.88;;;19.06;73.32
41636;BME280;27623;51.966;4.602;2022-07-10T08:16:37;102721.97;;;19.14;72.81
41636;BME280;27623;51.966;4.602;2022-07-10T08:19:05;102728.81;;;19.21;72.76
41636;BME280;27623;51.966;4.602;2022-07-10T08:21:30;102721.78;;;19.26;72.22
41636;BME280;27623;51.966;4.602;2022-07-10T08:23:57;102710.38;;;19.32;72.02
41636;BME280;27623;51.966;4.602;2022-07-10T08:26:22;102716.38;;;19.34;72.54
41636;BME280;27623;51.966;4.602;2022-07-10T08:28:48;102717.22;;;19.36;72.17
41636;BME280;27623;51.966;4.602;2022-07-10T08:31:14;102718.00;;;19.41;72.39
41636;BME280;27623;51.966;4.602;2022-07-10T08:33:39;102721.34;;;19.47;71.55
41636;BME280;27623;51.966;4.602;2022-07-10T08:36:06;102719.47;;;19.55;71.73
41636;BME280;27623;51.966;4.602;2022-07-10T08:38:31;102722.88;;;19.59;71.58
41636;BME280;27623;51.966;4.602;2022-07-10T08:40:57;102715.84;;;19.63;70.70
41636;BME280;27623;51.966;4.602;2022-07-10T08:43:24;102723.63;;;19.66;70.89
41636;BME280;27623;51.966;4.602;2022-07-10T08:45:51;102716.56;;;19.71;70.26
41636;BME280;27623;51.966;4.602;2022-07-10T08:48:21;102712.19;;;19.73;69.83
41636;BME280;27623;51.966;4.602;2022-07-10T08:50:48;102714.66;;;19.77;69.31
41636;BME280;27623;51.966;4.602;2022-07-10T08:53:23;102719.00;;;19.78;69.64
41636;BME280;27623;51.966;4.602;2022-07-10T08:55:49;102711.97;;;19.82;69.74
41636;BME280;27623;51.966;4.602;2022-07-10T08:58:14;102707.47;;;19.90;69.04
41636;BME280;27623;51.966;4.602;2022-07-10T09:00:40;102709.03;;;19.97;69.32
41636;BME280;27623;51.966;4.602;2022-07-10T09:03:07;102706.38;;;19.99;68.80
41636;BME280;27623;51.966;4.602;2022-07-10T09:05:32;102704.59;;;20.01;68.84
41636;BME280;27623;51.966;4.602;2022-07-10T09:07:58;102711.50;;;20.03;68.94
41636;BME280;27623;51.966;4.602;2022-07-10T09:10:25;102699.09;;;20.14;67.62
41636;BME280;27623;51.966;4.602;2022-07-10T09:12:58;102697.44;;;20.10;67.10
41636;BME280;27623;51.966;4.602;2022-07-10T09:15:25;102702.56;;;20.15;68.29
41636;BME280;27623;51.966;4.602;2022-07-10T09:18:02;102694.59;;;20.19;68.13
41636;BME280;27623;51.966;4.602;2022-07-10T09:20:38;102692.75;;;20.23;66.96
41636;BME280;27623;51.966;4.602;2022-07-10T09:23:20;102698.63;;;20.34;67.01
41636;BME280;27623;51.966;4.602;2022-07-10T09:25:47;102690.72;;;20.37;66.60
41636;BME280;27623;51.966;4.602;2022-07-10T09:28:15;102690.56;;;20.43;67.43
41636;BME280;27623;51.966;4.602;2022-07-10T09:30:41;102686.03;;;20.51;67.01
41636;BME280;27623;51.966;4.602;2022-07-10T09:36:10;102688.59;;;20.53;66.47
41636;BME280;27623;51.966;4.602;2022-07-10T09:41:16;102690.28;;;20.55;66.59
41636;BME280;27623;51.966;4.602;2022-07-10T09:43:44;102689.47;;;20.53;66.00
41636;BME280;27623;51.966;4.602;2022-07-10T09:46:11;102690.19;;;20.58;66.32
41636;BME280;27623;51.966;4.602;2022-07-10T09:48:36;102688.41;;;20.61;65.49
41636;BME280;27623;51.966;4.602;2022-07-10T09:51:02;102693.56;;;20.64;65.33
41636;BME280;27623;51.966;4.602;2022-07-10T09:53:29;102686.47;;;20.69;65.52
41636;BME280;27623;51.966;4.602;2022-07-10T09:56:00;102678.41;;;20.78;64.83
41636;BME280;27623;51.966;4.602;2022-07-10T09:58:32;102680.75;;;20.87;64.79
41636;BME280;27623;51.966;4.602;2022-07-10T10:01:01;102677.06;;;20.96;64.30
41636;BME280;27623;51.966;4.602;2022-07-10T10:03:32;102681.16;;;21.04;63.77
41636;BME280;27623;51.966;4.602;2022-07-10T10:06:03;102680.97;;;21.12;62.88
41636;BME280;27623;51.966;4.602;2022-07-10T10:11:19;102677.66;;;21.38;61.78
41636;BME280;27623;51.966;4.602;2022-07-10T10:13:51;102680.91;;;21.46;62.50
41636;BME280;27623;51.966;4.602;2022-07-10T10:16:19;102679.06;;;21.49;61.18
41636;BME280;27623;51.966;4.602;2022-07-10T10:18:44;102679.19;;;21.45;60.41
41636;BME280;27623;51.966;4.602;2022-07-10T10:21:29;102674.44;;;21.59;59.55
41636;BME280;27623;51.966;4.602;2022-07-10T10:23:55;102680.16;;;21.72;57.35
41636;BME280;27623;51.966;4.602;2022-07-10T10:26:22;102669.53;;;21.76;57.50
41636;BME280;27623;51.966;4.602;2022-07-10T10:28:51;102675.34;;;21.86;57.12
41636;BME280;27623;51.966;4.602;2022-07-10T10:31:17;102671.06;;;21.83;57.68
41636;BME280;27623;51.966;4.602;2022-07-10T10:33:45;102668.31;;;21.88;57.19
41636;BME280;27623;51.966;4.602;2022-07-10T10:36:13;102673.41;;;21.92;57.07
41636;BME280;27623;51.966;4.602;2022-07-10T10:41:46;102670.16;;;21.84;56.47
41636;BME280;27623;51.966;4.602;2022-07-10T10:49:17;102677.66;;;21.97;56.55
41636;BME280;27623;51.966;4.602;2022-07-10T10:52:03;102664.50;;;21.98;57.03
41636;BME280;27623;51.966;4.602;2022-07-10T10:54:31;102670.75;;;21.94;58.02
41636;BME280;27623;51.966;4.602;2022-07-10T10:57:17;102660.97;;;22.01;57.64
41636;BME280;27623;51.966;4.602;2022-07-10T10:59:50;102668.66;;;22.05;57.06
41636;BME280;27623;51.966;4.602;2022-07-10T11:02:32;102661.66;;;22.06;58.03
41636;BME280;27623;51.966;4.602;2022-07-10T11:07:59;102663.06;;;22.17;58.70
41636;BME280;27623;51.966;4.602;2022-07-10T11:15:27;102661.69;;;22.32;55.69
41636;BME280;27623;51.966;4.602;2022-07-10T11:17:56;102655.53;;;22.33;55.84
41636;BME280;27623;51.966;4.602;2022-07-10T11:20:22;102648.28;;;22.41;56.57
41636;BME280;27623;51.966;4.602;2022-07-10T11:23:08;102652.22;;;22.54;54.73
41636;BME280;27623;51.966;4.602;2022-07-10T11:25:54;102657.63;;;22.75;53.85
41636;BME280;27623;51.966;4.602;2022-07-10T11:31:17;102651.00;;;22.89;51.78
41636;BME280;27623;51.966;4.602;2022-07-10T11:33:44;102650.75;;;22.97;52.04
41636;BME280;27623;51.966;4.602;2022-07-10T11:36:16;102640.00;;;23.05;51.56
41636;BME280;27623;51.966;4.602;2022-07-10T11:38:44;102648.59;;;23.08;50.59
41636;BME280;27623;51.966;4.602;2022-07-10T11:41:17;102643.34;;;23.08;50.31
41636;BME280;27623;51.966;4.602;2022-07-10T11:43:55;102651.75;;;23.18;51.80
41636;BME280;27623;51.966;4.602;2022-07-10T11:46:22;102633.16;;;23.24;51.49
41636;BME280;27623;51.966;4.602;2022-07-10T11:48:50;102640.94;;;23.27;50.66
41636;BME280;27623;51.966;4.602;2022-07-10T11:51:23;102634.34;;;23.39;51.62
41636;BME280;27623;51.966;4.602;2022-07-10T11:54:00;102630.59;;;23.46;50.23
41636;BME280;27623;51.966;4.602;2022-07-10T11:56:28;102637.91;;;23.61;49.96
41636;BME280;27623;51.966;4.602;2022-07-10T12:01:28;102631.13;;;23.77;50.33
41636;BME280;27623;51.966;4.602;2022-07-10T12:03:59;102633.41;;;23.86;49.14
41636;BME280;27623;51.966;4.602;2022-07-10T12:06:26;102633.69;;;23.79;47.57
41636;BME280;27623;51.966;4.602;2022-07-10T12:08:52;102634.91;;;23.92;48.24
41636;BME280;27623;51.966;4.602;2022-07-10T12:11:19;102634.56;;;24.01;48.43
41636;BME280;27623;51.966;4.602;2022-07-10T12:13:45;102637.88;;;24.06;47.98
41636;BME280;27623;51.966;4.602;2022-07-10T12:16:11;102631.97;;;24.21;47.74
41636;BME280;27623;51.966;4.602;2022-07-10T12:18:37;102627.75;;;24.39;47.71
41636;BME280;27623;51.966;4.602;2022-07-10T12:21:03;102629.59;;;24.37;46.41
41636;BME280;27623;51.966;4.602;2022-07-10T12:23:29;102631.47;;;24.33;44.43
41636;BME280;27623;51.966;4.602;2022-07-10T12:25:55;102633.25;;;24.33;45.66
41636;BME280;27623;51.966;4.602;2022-07-10T12:28:21;102625.38;;;24.33;45.21
41636;BME280;27623;51.966;4.602;2022-07-10T12:30:48;102628.84;;;24.33;46.24
41636;BME280;27623;51.966;4.602;2022-07-10T12:33:22;102628.75;;;24.57;47.08
41636;BME280;27623;51.966;4.602;2022-07-10T12:35:57;102628.16;;;24.71;45.48
41636;BME280;27623;51.966;4.602;2022-07-10T12:38:25;102626.75;;;24.82;44.72
41636;BME280;27623;51.966;4.602;2022-07-10T12:41:26;102627.81;;;24.98;44.30
41636;BME280;27623;51.966;4.602;2022-07-10T12:43:52;102626.56;;;25.07;43.15
41636;BME280;27623;51.966;4.602;2022-07-10T12:46:19;102623.28;;;25.02;43.34
41636;BME280;27623;51.966;4.602;2022-07-10T12:49:07;102628.06;;;25.13;46.24
41636;BME280;27623;51.966;4.602;2022-07-10T12:51:34;102632.25;;;25.17;45.51
41636;BME280;27623;51.966;4.602;2022-07-10T12:54:00;102627.06;;;25.15;44.41
41636;BME280;27623;51.966;4.602;2022-07-10T12:56:34;102623.78;;;25.10;43.00
41636;BME280;27623;51.966;4.602;2022-07-10T12:59:01;102618.16;;;25.18;43.83
41636;BME280;27623;51.966;4.602;2022-07-10T13:01:29;102613.25;;;25.10;45.08
41636;BME280;27623;51.966;4.602;2022-07-10T13:04:03;102621.66;;;25.18;45.44
41636;BME280;27623;51.966;4.602;2022-07-10T13:06:33;102619.81;;;25.20;45.10
41636;BME280;27623;51.966;4.602;2022-07-10T13:09:02;102612.22;;;25.33;45.73
41636;BME280;27623;51.966;4.602;2022-07-10T13:11:28;102624.88;;;25.44;45.89
41636;BME280;27623;51.966;4.602;2022-07-10T13:13:53;102620.91;;;25.54;44.79
41636;BME280;27623;51.966;4.602;2022-07-10T13:16:21;102613.59;;;25.59;44.33
41636;BME280;27623;51.966;4.602;2022-07-10T13:18:47;102611.28;;;25.53;44.02
41636;BME280;27623;51.966;4.602;2022-07-10T13:21:13;102614.53;;;25.58;45.27